sensor_id;sensor_type;location;lat;lon;timestamp;pressure;altitude;pressure_sealevel;temperature;humidity
25080;BME280;13071;48.868;9.996;2022-11-04T00:01:25;95542.56;;;10.33;100.00
25080;BME280;13071;48.868;9.996;2022-11-04T00:03:52;95551.13;;;10.35;100.00
25080;BME280;13071;48.868;9.996;2022-11-04T00:06:20;95544.00;;;10.46;100.00
25080;BME280;13071;48.868;9.996;2022-11-04T00:08:48;95555.34;;;10.52;100.00
25080;BME280;13071;48.868;9.996;2022-11-04T00:11:15;95561.41;;;10.45;100.00
25080;BME280;13071;48.868;9.996;2022-11-04T00:13:59;95543.53;;;10.41;100.00
25080;BME280;13071;48.868;9.996;2022-11-04T00:16:26;95542.66;;;10.36;100.00
25080;BME280;13071;48.868;9.996;2022-11-04T00:19:10;95543.81;;;10.35;100.00
25080;BME280;13071;48.868;9.996;2022-11-04T00:21:38;95542.53;;;10.49;100.00
25080;BME280;13071;48.868;9.996;2022-11-04T00:24:24;95541.31;;;10.46;100.00
25080;BME280;13071;48.868;9.996;2022-11-04T00:27:08;95551.53;;;10.37;100.00
25080;BME280;13071;48.868;9.996;2022-11-04T00:29:53;95545.16;;;10.26;100.00
25080;BME280;13071;48.868;9.996;2022-11-04T00:32:19;95547.25;;;10.17;100.00
25080;BME280;13071;48.868;9.996;2022-11-04T00:35:04;95535.47;;;10.25;100.00
25080;BME280;13071;48.868;9.996;2022-11-04T00:37:35;95542.44;;;10.26;100.00
25080;BME280;13071;48.868;9.996;2022-11-04T00:40:01;95545.91;;;10.26;100.00
25080;BME280;13071;48.868;9.996;2022-11-04T00:42:28;95542.84;;;10.28;100.00
25080;BME280;13071;48.868;9.996;2022-11-04T00:44:55;95530.56;;;10.30;100.00
25080;BME280;13071;48.868;9.996;2022-11-04T00:47:21;95527.34;;;10.25;100.00
25080;BME280;13071;48.868;9.996;2022-11-04T00:49:48;95534.22;;;10.22;100.00
25080;BME280;13071;48.868;9.996;2022-11-04T00:52:15;95535.19;;;10.14;100.00
25080;BME280;13071;48.868;9.996;2022-11-04T00:54:43;95544.78;;;10.12;100.00
25080;BME280;13071;48.868;9.996;2022-11-04T00:57:10;95547.75;;;10.07;100.00
25080;BME280;13071;48.868;9.996;2022-11-04T00:59:37;95543.25;;;10.11;100.00
25080;BME280;13071;48.868;9.996;2022-11-04T01:02:04;95558.22;;;10.24;100.00
25080;BME280;13071;48.868;9.996;2022-11-04T01:04:31;95556.81;;;10.14;100.00
25080;BME280;13071;48.868;9.996;2022-11-04T01:06:58;95563.69;;;10.12;100.00
25080;BME280;13071;48.868;9.996;2022-11-04T01:09:24;95566.25;;;10.05;100.00
25080;BME280;13071;48.868;9.996;2022-11-04T01:11:53;95564.88;;;10.11;100.00
25080;BME280;13071;48.868;9.996;2022-11-04T01:14:19;95561.66;;;10.05;100.00
25080;BME280;13071;48.868;9.996;2022-11-04T01:16:48;95570.72;;;9.97;100.00
25080;BME280;13071;48.868;9.996;2022-11-04T01:19:15;95576.09;;;9.97;100.00
25080;BME280;13071;48.868;9.996;2022-11-04T01:21:42;95582.81;;;10.03;100.00
25080;BME280;13071;48.868;9.996;2022-11-04T01:24:08;95581.97;;;9.99;100.00
25080;BME280;13071;48.868;9.996;2022-11-04T01:26:35;95578.03;;;9.96;100.00
25080;BME280;13071;48.868;9.996;2022-11-04T01:29:03;95578.66;;;10.06;100.00
25080;BME280;13071;48.868;9.996;2022-11-04T01:31:30;95586.38;;;10.07;100.00
25080;BME280;13071;48.868;9.996;2022-11-04T01:33:57;95589.00;;;10.04;100.00
25080;BME280;13071;48.868;9.996;2022-11-04T01:36:25;95587.78;;;10.17;100.00
25080;BME280;13071;48.868;9.996;2022-11-04T01:38:53;95590.41;;;9.97;100.00
25080;BME280;13071;48.868;9.996;2022-11-04T01:41:25;95596.78;;;10.05;100.00
25080;BME280;13071;48.868;9.996;2022-11-04T01:43:53;95594.75;;;10.02;100.00
25080;BME280;13071;48.868;9.996;2022-11-04T01:46:26;95595.13;;;10.01;100.00
25080;BME280;13071;48.868;9.996;2022-11-04T01:48:58;95594.22;;;10.12;100.00
25080;BME280;13071;48.868;9.996;2022-11-04T01:51:27;95590.53;;;10.01;100.00
25080;BME280;13071;48.868;9.996;2022-11-04T01:53:56;95599.94;;;9.91;100.00
25080;BME280;13071;48.868;9.996;2022-11-04T01:56:25;95600.09;;;9.98;100.00
25080;BME280;13071;48.868;9.996;2022-11-04T01:58:55;95590.59;;;9.89;100.00
25080;BME280;13071;48.868;9.996;2022-11-04T02:01:24;95588.34;;;9.91;100.00
25080;BME280;13071;48.868;9.996;2022-11-04T02:03:54;95577.00;;;9.85;100.00
25080;BME280;13071;48.868;9.996;2022-11-04T02:06:42;95578.44;;;10.14;100.00
25080;BME280;13071;48.868;9.996;2022-11-04T02:09:09;95575.22;;;10.09;100.00
25080;BME280;13071;48.868;9.996;2022-11-04T02:11:36;95582.91;;;10.07;100.00
25080;BME280;13071;48.868;9.996;2022-11-04T02:14:20;95588.69;;;10.21;100.00
25080;BME280;13071;48.868;9.996;2022-11-04T02:16:49;95588.25;;;10.19;100.00
25080;BME280;13071;48.868;9.996;2022-11-04T02:19:31;95571.66;;;10.05;100.00
25080;BME280;13071;48.868;9.996;2022-11-04T02:22:22;95568.34;;;10.11;100.00
25080;BME280;13071;48.868;9.996;2022-11-04T02:25:16;95571.81;;;10.12;100.00
25080;BME280;13071;48.868;9.996;2022-11-04T02:28:09;95578.56;;;10.18;100.00
25080;BME280;13071;48.868;9.996;2022-11-04T02:30:45;95571.13;;;10.30;100.00
25080;BME280;13071;48.868;9.996;2022-11-04T02:33:18;95581.25;;;10.18;100.00
25080;BME280;13071;48.868;9.996;2022-11-04T02:35:53;95575.16;;;10.05;100.00
25080;BME280;13071;48.868;9.996;2022-11-04T02:38:29;95578.66;;;10.06;100.00
25080;BME280;13071;48.868;9.996;2022-11-04T02:41:03;95591.44;;;10.09;100.00
25080;BME280;13071;48.868;9.996;2022-11-04T02:43:36;95587.78;;;10.17;100.00
25080;BME280;13071;48.868;9.996;2022-11-04T02:46:14;95589.53;;;10.09;100.00
25080;BME280;13071;48.868;9.996;2022-11-04T02:48:45;95591.00;;;10.07;100.00
25080;BME280;13071;48.868;9.996;2022-11-04T02:51:16;95601.50;;;9.92;100.00
25080;BME280;13071;48.868;9.996;2022-11-04T02:53:47;95587.72;;;9.97;100.00
25080;BME280;13071;48.868;9.996;2022-11-04T02:56:16;95601.22;;;9.97;100.00
25080;BME280;13071;48.868;9.996;2022-11-04T02:58:51;95598.63;;;10.01;100.00
25080;BME280;13071;48.868;9.996;2022-11-04T03:03:55;95593.56;;;10.00;100.00
25080;BME280;13071;48.868;9.996;2022-11-04T03:06:27;95598.38;;;9.90;100.00
25080;BME280;13071;48.868;9.996;2022-11-04T03:08:56;95595.81;;;9.82;100.00
25080;BME280;13071;48.868;9.996;2022-11-04T03:11:24;95601.06;;;9.90;100.00
25080;BME280;13071;48.868;9.996;2022-11-04T03:13:55;95607.00;;;9.80;100.00
25080;BME280;13071;48.868;9.996;2022-11-04T03:16:29;95599.22;;;9.94;100.00
25080;BME280;13071;48.868;9.996;2022-11-04T03:19:01;95604.56;;;9.75;100.00
25080;BME280;13071;48.868;9.996;2022-11-04T03:21:33;95600.28;;;9.74;100.00
25080;BME280;13071;48.868;9.996;2022-11-04T03:24:02;95601.41;;;9.89;100.00
25080;BME280;13071;48.868;9.996;2022-11-04T03:26:33;95606.47;;;9.75;100.00
25080;BME280;13071;48.868;9.996;2022-11-04T03:29:14;95613.19;;;9.65;100.00
25080;BME280;13071;48.868;9.996;2022-11-04T03:31:48;95601.13;;;9.63;100.00
25080;BME280;13071;48.868;9.996;2022-11-04T03:34:19;95615.03;;;9.61;100.00
25080;BME280;13071;48.868;9.996;2022-11-04T03:36:46;95613.88;;;9.62;100.00
25080;BME280;13071;48.868;9.996;2022-11-04T03:39:13;95614.22;;;9.61;100.00
25080;BME280;13071;48.868;9.996;2022-11-04T03:41:42;95612.22;;;9.58;100.00
25080;BME280;13071;48.868;9.996;2022-11-04T03:44:10;95612.31;;;9.61;100.00
25080;BME280;13071;48.868;9.996;2022-11-04T03:46:37;95611.78;;;9.56;100.00
25080;BME280;13071;48.868;9.996;2022-11-04T03:49:07;95602.63;;;9.60;100.00
25080;BME280;13071;48.868;9.996;2022-11-04T03:51:35;95611.53;;;9.61;100.00
25080;BME280;13071;48.868;9.996;2022-11-04T03:54:02;95599.59;;;9.62;100.00
25080;BME280;13071;48.868;9.996;2022-11-04T03:56:42;95611.53;;;9.61;100.00
25080;BME280;13071;48.868;9.996;2022-11-04T03:59:26;95617.28;;;9.59;100.00
25080;BME280;13071;48.868;9.996;2022-11-04T04:01:58;95626.88;;;9.57;100.00
25080;BME280;13071;48.868;9.996;2022-11-04T04:04:31;95621.72;;;9.67;100.00
25080;BME280;13071;48.868;9.996;2022-11-04T04:07:03;95636.91;;;9.72;100.00
25080;BME280;13071;48.868;9.996;2022-11-04T04:09:38;95660.31;;;9.68;100.00
25080;BME280;13071;48.868;9.996;2022-11-04T04:12:10;95658.03;;;9.54;100.00
25080;BME280;13071;48.868;9.996;2022-11-04T04:14:42;95650.53;;;9.47;100.00
25080;BME280;13071;48.868;9.996;2022-11-04T04:17:14;95659.91;;;9.66;100.00
25080;BME280;13071;48.868;9.996;2022-11-04T04:19:47;95658.25;;;9.61;100.00
25080;BME280;13071;48.868;9.996;2022-11-04T04:22:18;95652.56;;;9.50;100.00
25080;BME280;13071;48.868;9.996;2022-11-04T04:24:49;95652.47;;;9.63;100.00
25080;BME280;13071;48.868;9.996;2022-11-04T04:27:35;95631.63;;;9.47;100.00
25080;BME280;13071;48.868;9.996;2022-11-04T04:30:05;95634.69;;;9.46;100.00
25080;BME280;13071;48.868;9.996;2022-11-04T04:32:34;95618.75;;;9.13;100.00
25080;BME280;13071;48.868;9.996;2022-11-04T04:35:05;95626.47;;;9.27;99.15
25080;BME280;13071;48.868;9.996;2022-11-04T04:37:51;95628.97;;;9.20;99.67
25080;BME280;13071;48.868;9.996;2022-11-04T04:40:22;95653.47;;;9.27;97.58
25080;BME280;13071;48.868;9.996;2022-11-04T04:43:13;95661.75;;;9.34;97.01
25080;BME280;13071;48.868;9.996;2022-11-04T04:45:58;95660.94;;;9.33;96.08
25080;BME280;13071;48.868;9.996;2022-11-04T04:48:26;95654.00;;;9.04;97.81
25080;BME280;13071;48.868;9.996;2022-11-04T04:50:56;95649.84;;;9.23;97.04
25080;BME280;13071;48.868;9.996;2022-11-04T04:53:26;95644.06;;;9.08;97.89
25080;BME280;13071;48.868;9.996;2022-11-04T04:55:53;95635.81;;;8.89;99.14
25080;BME280;13071;48.868;9.996;2022-11-04T04:58:19;95641.44;;;8.96;98.92
25080;BME280;13071;48.868;9.996;2022-11-04T05:00:46;95643.91;;;9.01;99.57
25080;BME280;13071;48.868;9.996;2022-11-04T05:03:12;95635.88;;;9.05;99.61
25080;BME280;13071;48.868;9.996;2022-11-04T05:05:39;95624.13;;;8.97;99.39
25080;BME280;13071;48.868;9.996;2022-11-04T05:08:07;95638.88;;;8.88;100.00
25080;BME280;13071;48.868;9.996;2022-11-04T05:10:34;95644.94;;;8.97;98.80
25080;BME280;13071;48.868;9.996;2022-11-04T05:13:01;95661.22;;;8.88;100.00
25080;BME280;13071;48.868;9.996;2022-11-04T05:15:45;95649.13;;;8.82;100.00
25080;BME280;13071;48.868;9.996;2022-11-04T05:18:12;95629.94;;;8.72;100.00
25080;BME280;13071;48.868;9.996;2022-11-04T05:20:38;95619.28;;;8.63;100.00
25080;BME280;13071;48.868;9.996;2022-11-04T05:23:07;95616.84;;;8.58;100.00
25080;BME280;13071;48.868;9.996;2022-11-04T05:25:36;95615.25;;;8.57;100.00
25080;BME280;13071;48.868;9.996;2022-11-04T05:28:04;95617.03;;;8.65;100.00
25080;BME280;13071;48.868;9.996;2022-11-04T05:30:31;95615.81;;;8.90;100.00
25080;BME280;13071;48.868;9.996;2022-11-04T05:32:57;95600.13;;;8.80;100.00
25080;BME280;13071;48.868;9.996;2022-11-04T05:35:24;95586.13;;;8.62;100.00
25080;BME280;13071;48.868;9.996;2022-11-04T05:37:51;95589.63;;;8.63;100.00
25080;BME280;13071;48.868;9.996;2022-11-04T05:40:19;95593.53;;;8.65;100.00
25080;BME280;13071;48.868;9.996;2022-11-04T05:42:45;95604.00;;;8.67;100.00
25080;BME280;13071;48.868;9.996;2022-11-04T05:45:12;95615.44;;;8.64;100.00
25080;BME280;13071;48.868;9.996;2022-11-04T05:47:39;95625.91;;;8.65;100.00
25080;BME280;13071;48.868;9.996;2022-11-04T05:50:06;95620.84;;;8.64;100.00
25080;BME280;13071;48.868;9.996;2022-11-04T05:52:32;95607.34;;;8.64;100.00
25080;BME280;13071;48.868;9.996;2022-11-04T05:54:59;95615.31;;;8.73;100.00
25080;BME280;13071;48.868;9.996;2022-11-04T05:57:27;95612.50;;;8.69;100.00
25080;BME280;13071;48.868;9.996;2022-11-04T05:59:54;95626.13;;;8.60;100.00
25080;BME280;13071;48.868;9.996;2022-11-04T06:02:21;95647.16;;;8.55;100.00
25080;BME280;13071;48.868;9.996;2022-11-04T06:04:47;95649.31;;;8.49;100.00
25080;BME280;13071;48.868;9.996;2022-11-04T06:07:14;95642.59;;;8.43;100.00
25080;BME280;13071;48.868;9.996;2022-11-04T06:09:40;95642.47;;;8.40;100.00
25080;BME280;13071;48.868;9.996;2022-11-04T06:12:08;95635.84;;;8.37;100.00
25080;BME280;13071;48.868;9.996;2022-11-04T06:14:36;95644.38;;;8.27;100.00
25080;BME280;13071;48.868;9.996;2022-11-04T06:17:03;95649.75;;;8.27;100.00
25080;BME280;13071;48.868;9.996;2022-11-04T06:19:30;95656.41;;;8.30;100.00
25080;BME280;13071;48.868;9.996;2022-11-04T06:21:56;95645.63;;;8.30;100.00
25080;BME280;13071;48.868;9.996;2022-11-04T06:24:23;95657.97;;;8.31;100.00
25080;BME280;13071;48.868;9.996;2022-11-04T06:26:50;95659.75;;;8.27;100.00
25080;BME280;13071;48.868;9.996;2022-11-04T06:29:16;95670.66;;;8.18;100.00
25080;BME280;13071;48.868;9.996;2022-11-04T06:31:44;95658.75;;;8.07;100.00
25080;BME280;13071;48.868;9.996;2022-11-04T06:34:11;95659.53;;;8.07;100.00
25080;BME280;13071;48.868;9.996;2022-11-04T06:36:37;95664.03;;;8.03;100.00
25080;BME280;13071;48.868;9.996;2022-11-04T06:39:04;95662.13;;;8.04;100.00
25080;BME280;13071;48.868;9.996;2022-11-04T06:41:31;95673.00;;;8.07;100.00
25080;BME280;13071;48.868;9.996;2022-11-04T06:43:57;95670.41;;;8.11;100.00
25080;BME280;13071;48.868;9.996;2022-11-04T06:46:26;95664.13;;;8.07;100.00
25080;BME280;13071;48.868;9.996;2022-11-04T06:48:55;95662.44;;;8.02;100.00
25080;BME280;13071;48.868;9.996;2022-11-04T06:51:22;95664.13;;;8.07;100.00
25080;BME280;13071;48.868;9.996;2022-11-04T06:53:49;95655.25;;;8.06;100.00
25080;BME280;13071;48.868;9.996;2022-11-04T06:56:16;95659.75;;;8.14;100.00
25080;BME280;13071;48.868;9.996;2022-11-04T06:58:46;95659.97;;;8.21;100.00
25080;BME280;13071;48.868;9.996;2022-11-04T07:01:13;95649.31;;;8.25;100.00
25080;BME280;13071;48.868;9.996;2022-11-04T07:03:40;95647.97;;;8.31;100.00
25080;BME280;13071;48.868;9.996;2022-11-04T07:06:09;95635.94;;;8.29;100.00
25080;BME280;13071;48.868;9.996;2022-11-04T07:08:36;95616.84;;;8.21;100.00
25080;BME280;13071;48.868;9.996;2022-11-04T07:11:03;95614.25;;;8.25;100.00
25080;BME280;13071;48.868;9.996;2022-11-04T07:13:29;95608.53;;;8.27;100.00
25080;BME280;13071;48.868;9.996;2022-11-04T07:15:56;95622.59;;;8.32;100.00
25080;BME280;13071;48.868;9.996;2022-11-04T07:18:22;95620.69;;;8.33;100.00
25080;BME280;13071;48.868;9.996;2022-11-04T07:20:49;95617.22;;;8.32;100.00
25080;BME280;13071;48.868;9.996;2022-11-04T07:23:17;95613.41;;;8.33;100.00
25080;BME280;13071;48.868;9.996;2022-11-04T07:25:44;95618.66;;;8.42;100.00
25080;BME280;13071;48.868;9.996;2022-11-04T07:28:10;95619.22;;;8.47;100.00
25080;BME280;13071;48.868;9.996;2022-11-04T07:30:37;95625.41;;;8.48;100.00
25080;BME280;13071;48.868;9.996;2022-11-04T07:33:03;95628.19;;;8.51;100.00
25080;BME280;13071;48.868;9.996;2022-11-04T07:35:30;95621.03;;;8.43;100.00
25080;BME280;13071;48.868;9.996;2022-11-04T07:37:57;95638.50;;;8.49;100.00
25080;BME280;13071;48.868;9.996;2022-11-04T07:40:25;95646.97;;;8.48;100.00
25080;BME280;13071;48.868;9.996;2022-11-04T07:42:52;95652.22;;;8.44;100.00
25080;BME280;13071;48.868;9.996;2022-11-04T07:45:19;95653.38;;;8.43;100.00
25080;BME280;13071;48.868;9.996;2022-11-04T07:47:45;95646.50;;;8.46;100.00
25080;BME280;13071;48.868;9.996;2022-11-04T07:50:12;95643.13;;;8.49;100.00
25080;BME280;13071;48.868;9.996;2022-11-04T07:52:39;95640.41;;;8.49;100.00
25080;BME280;13071;48.868;9.996;2022-11-04T07:55:06;95632.47;;;8.52;100.00
25080;BME280;13071;48.868;9.996;2022-11-04T07:57:35;95630.31;;;8.58;100.00
25080;BME280;13071;48.868;9.996;2022-11-04T08:00:03;95643.91;;;8.61;100.00
25080;BME280;13071;48.868;9.996;2022-11-04T08:02:31;95644.81;;;8.53;100.00
25080;BME280;13071;48.868;9.996;2022-11-04T08:04:58;95652.53;;;8.67;100.00
25080;BME280;13071;48.868;9.996;2022-11-04T08:07:24;95659.97;;;8.58;100.00
25080;BME280;13071;48.868;9.996;2022-11-04T08:09:51;95669.28;;;8.60;100.00
25080;BME280;13071;48.868;9.996;2022-11-04T08:12:17;95664.22;;;8.59;100.00
25080;BME280;13071;48.868;9.996;2022-11-04T08:14:47;95669.50;;;8.68;100.00
25080;BME280;13071;48.868;9.996;2022-11-04T08:17:14;95661.41;;;8.68;100.00
25080;BME280;13071;48.868;9.996;2022-11-04T08:19:41;95671.84;;;8.81;100.00
25080;BME280;13071;48.868;9.996;2022-11-04T08:22:07;95676.06;;;8.94;100.00
25080;BME280;13071;48.868;9.996;2022-11-04T08:24:34;95670.25;;;8.92;100.00
25080;BME280;13071;48.868;9.996;2022-11-04T08:27:02;95666.84;;;8.95;100.00
25080;BME280;13071;48.868;9.996;2022-11-04T08:29:31;95662.78;;;9.01;100.00
25080;BME280;13071;48.868;9.996;2022-11-04T08:31:59;95663.75;;;9.09;100.00
25080;BME280;13071;48.868;9.996;2022-11-04T08:34:26;95657.56;;;9.08;100.00
25080;BME280;13071;48.868;9.996;2022-11-04T08:36:53;95654.94;;;9.24;100.00
25080;BME280;13071;48.868;9.996;2022-11-04T08:39:22;95657.84;;;9.31;100.00
25080;BME280;13071;48.868;9.996;2022-11-04T08:41:49;95658.25;;;9.33;100.00
25080;BME280;13071;48.868;9.996;2022-11-04T08:44:18;95660.81;;;9.42;100.00
25080;BME280;13071;48.868;9.996;2022-11-04T08:46:45;95656.34;;;9.34;100.00
25080;BME280;13071;48.868;9.996;2022-11-04T08:49:13;95667.09;;;9.46;100.00
25080;BME280;13071;48.868;9.996;2022-11-04T08:51:42;95667.63;;;9.51;100.00
25080;BME280;13071;48.868;9.996;2022-11-04T08:54:11;95659.53;;;9.51;100.00
25080;BME280;13071;48.868;9.996;2022-11-04T08:56:38;95659.38;;;9.60;100.00
25080;BME280;13071;48.868;9.996;2022-11-04T08:59:05;95664.59;;;9.69;100.00
25080;BME280;13071;48.868;9.996;2022-11-04T09:01:34;95671.31;;;9.75;100.00
25080;BME280;13071;48.868;9.996;2022-11-04T09:04:02;95670.44;;;9.71;100.00
25080;BME280;13071;48.868;9.996;2022-11-04T09:06:32;95668.69;;;9.78;100.00
25080;BME280;13071;48.868;9.996;2022-11-04T09:08:59;95668.69;;;9.78;100.00
25080;BME280;13071;48.868;9.996;2022-11-04T09:11:29;95682.16;;;9.90;98.45
25080;BME280;13071;48.868;9.996;2022-11-04T09:13:58;95685.00;;;9.82;98.06
25080;BME280;13071;48.868;9.996;2022-11-04T09:16:27;95691.91;;;9.79;99.44
25080;BME280;13071;48.868;9.996;2022-11-04T09:18:55;95676.22;;;9.85;98.72
25080;BME280;13071;48.868;9.996;2022-11-04T09:21:22;95684.94;;;9.94;98.16
25080;BME280;13071;48.868;9.996;2022-11-04T09:23:50;95692.44;;;10.01;98.69
25080;BME280;13071;48.868;9.996;2022-11-04T09:26:18;95698.44;;;9.94;97.56
25080;BME280;13071;48.868;9.996;2022-11-04T09:28:44;95695.16;;;10.01;96.54
25080;BME280;13071;48.868;9.996;2022-11-04T09:31:13;95685.72;;;9.94;96.54
25080;BME280;13071;48.868;9.996;2022-11-04T09:33:40;95687.47;;;10.03;96.20
25080;BME280;13071;48.868;9.996;2022-11-04T09:36:07;95685.00;;;9.97;97.29
25080;BME280;13071;48.868;9.996;2022-11-04T09:38:35;95682.31;;;10.13;96.29
25080;BME280;13071;48.868;9.996;2022-11-04T09:41:17;95670.56;;;10.21;96.54
25080;BME280;13071;48.868;9.996;2022-11-04T09:43:52;95674.47;;;10.39;95.98
25080;BME280;13071;48.868;9.996;2022-11-04T09:46:23;95661.91;;;10.47;95.24
25080;BME280;13071;48.868;9.996;2022-11-04T09:48:51;95669.41;;;10.54;94.87
25080;BME280;13071;48.868;9.996;2022-11-04T09:51:21;95667.34;;;10.66;93.66
25080;BME280;13071;48.868;9.996;2022-11-04T09:53:53;95657.28;;;10.48;94.15
25080;BME280;13071;48.868;9.996;2022-11-04T09:56:27;95657.53;;;10.43;92.78
25080;BME280;13071;48.868;9.996;2022-11-04T09:58:55;95654.56;;;10.48;93.18
25080;BME280;13071;48.868;9.996;2022-11-04T10:01:27;95643.38;;;10.65;93.67
25080;BME280;13071;48.868;9.996;2022-11-04T10:04:07;95637.47;;;10.78;91.09
25080;BME280;13071;48.868;9.996;2022-11-04T10:06:42;95649.50;;;11.00;87.01
25080;BME280;13071;48.868;9.996;2022-11-04T10:09:24;95645.44;;;10.91;87.33
25080;BME280;13071;48.868;9.996;2022-11-04T10:12:03;95638.91;;;10.92;87.03
25080;BME280;13071;48.868;9.996;2022-11-04T10:14:57;95641.81;;;11.02;88.09
25080;BME280;13071;48.868;9.996;2022-11-04T10:17:51;95633.63;;;11.18;86.02
25080;BME280;13071;48.868;9.996;2022-11-04T10:20:36;95631.72;;;11.18;86.32
25080;BME280;13071;48.868;9.996;2022-11-04T10:23:13;95620.50;;;11.20;86.47
25080;BME280;13071;48.868;9.996;2022-11-04T10:25:47;95622.16;;;11.24;84.58
25080;BME280;13071;48.868;9.996;2022-11-04T10:28:17;95616.81;;;11.28;85.86
25080;BME280;13071;48.868;9.996;2022-11-04T10:30:46;95622.28;;;11.32;85.89
25080;BME280;13071;48.868;9.996;2022-11-04T10:33:21;95633.63;;;11.37;85.67
25080;BME280;13071;48.868;9.996;2022-11-04T10:35:52;95625.22;;;11.23;85.14
25080;BME280;13071;48.868;9.996;2022-11-04T10:38:26;95624.50;;;11.26;85.43
25080;BME280;13071;48.868;9.996;2022-11-04T10:40:55;95617.66;;;11.32;85.46
25080;BME280;13071;48.868;9.996;2022-11-04T10:43:27;95628.50;;;11.32;85.18
25080;BME280;13071;48.868;9.996;2022-11-04T10:46:05;95631.69;;;11.38;84.78
25080;BME280;13071;48.868;9.996;2022-11-04T10:48:37;95629.38;;;11.40;85.40
25080;BME280;13071;48.868;9.996;2022-11-04T10:51:08;95622.63;;;11.30;85.57
25080;BME280;13071;48.868;9.996;2022-11-04T10:53:34;95622.47;;;11.42;85.47
25080;BME280;13071;48.868;9.996;2022-11-04T10:56:06;95622.69;;;11.53;83.71
25080;BME280;13071;48.868;9.996;2022-11-04T10:58:43;95611.41;;;11.51;83.87
25080;BME280;13071;48.868;9.996;2022-11-04T11:01:28;95616.97;;;11.58;84.03
25080;BME280;13071;48.868;9.996;2022-11-04T11:03:56;95611.50;;;11.54;84.26
25080;BME280;13071;48.868;9.996;2022-11-04T11:06:27;95608.78;;;11.54;83.67
25080;BME280;13071;48.868;9.996;2022-11-04T11:08:57;95606.06;;;11.54;82.41
25080;BME280;13071;48.868;9.996;2022-11-04T11:11:39;95610.88;;;11.64;80.42
25080;BME280;13071;48.868;9.996;2022-11-04T11:14:16;95598.53;;;11.67;81.59
25080;BME280;13071;48.868;9.996;2022-11-04T11:16:43;95592.00;;;11.68;82.26
25080;BME280;13071;48.868;9.996;2022-11-04T11:19:19;95590.06;;;11.68;82.04
25080;BME280;13071;48.868;9.996;2022-11-04T11:21:48;95580.13;;;11.76;83.23
25080;BME280;13071;48.868;9.996;2022-11-04T11:24:19;95585.00;;;11.67;83.48
25080;BME280;13071;48.868;9.996;2022-11-04T11:26:46;95578.88;;;11.93;82.29
25080;BME280;13071;48.868;9.996;2022-11-04T11:29:21;95568.72;;;11.90;79.63
25080;BME280;13071;48.868;9.996;2022-11-04T11:31:49;95575.13;;;12.01;80.22
25080;BME280;13071;48.868;9.996;2022-11-04T11:34:20;95581.63;;;11.96;78.25
25080;BME280;13071;48.868;9.996;2022-11-04T11:36:51;95583.19;;;11.97;76.77
25080;BME280;13071;48.868;9.996;2022-11-04T11:39:21;95582.06;;;11.98;76.93
25080;BME280;13071;48.868;9.996;2022-11-04T11:41:56;95568.06;;;11.96;76.31
25080;BME280;13071;48.868;9.996;2022-11-04T11:44:27;95569.91;;;11.89;77.66
25080;BME280;13071;48.868;9.996;2022-11-04T11:46:58;95565.63;;;11.88;77.78
25080;BME280;13071;48.868;9.996;2022-11-04T11:49:27;95566.31;;;11.85;77.99
25080;BME280;13071;48.868;9.996;2022-11-04T11:51:55;95565.19;;;11.86;77.70
25080;BME280;13071;48.868;9.996;2022-11-04T11:54:26;95563.31;;;11.90;78.52
25080;BME280;13071;48.868;9.996;2022-11-04T11:56:59;95571.63;;;12.00;78.97
25080;BME280;13071;48.868;9.996;2022-11-04T11:59:35;95575.63;;;12.10;79.57
25080;BME280;13071;48.868;9.996;2022-11-04T12:02:24;95581.06;;;12.10;76.00
25080;BME280;13071;48.868;9.996;2022-11-04T12:04:53;95575.06;;;11.97;76.55
25080;BME280;13071;48.868;9.996;2022-11-04T12:07:28;95581.06;;;12.10;77.30
25080;BME280;13071;48.868;9.996;2022-11-04T12:10:02;95578.44;;;11.91;77.49
25080;BME280;13071;48.868;9.996;2022-11-04T12:12:42;95578.13;;;11.96;78.36
25080;BME280;13071;48.868;9.996;2022-11-04T12:15:24;95588.16;;;11.92;78.23
25080;BME280;13071;48.868;9.996;2022-11-04T12:18:01;95595.84;;;11.90;78.40
25080;BME280;13071;48.868;9.996;2022-11-04T12:20:40;95589.81;;;12.00;75.39
25080;BME280;13071;48.868;9.996;2022-11-04T12:23:15;95599.56;;;12.04;76.98
25080;BME280;13071;48.868;9.996;2022-11-04T12:25:53;95602.66;;;12.03;76.15
25080;BME280;13071;48.868;9.996;2022-11-04T12:28:29;95603.06;;;12.05;75.19
25080;BME280;13071;48.868;9.996;2022-11-04T12:31:12;95617.00;;;12.03;77.11
25080;BME280;13071;48.868;9.996;2022-11-04T12:33:47;95623.63;;;12.06;77.24
25080;BME280;13071;48.868;9.996;2022-11-04T12:36:26;95623.44;;;11.95;77.43
25080;BME280;13071;48.868;9.996;2022-11-04T12:39:04;95627.78;;;12.00;77.34
25080;BME280;13071;48.868;9.996;2022-11-04T12:41:40;95625.25;;;12.10;77.66
25080;BME280;13071;48.868;9.996;2022-11-04T12:44:17;95624.16;;;12.15;75.89
25080;BME280;13071;48.868;9.996;2022-11-04T12:46:55;95618.78;;;12.19;75.20
25080;BME280;13071;48.868;9.996;2022-11-04T12:49:53;95616.84;;;12.19;74.19
25080;BME280;13071;48.868;9.996;2022-11-04T12:52:34;95615.19;;;12.11;74.34
25080;BME280;13071;48.868;9.996;2022-11-04T12:55:17;95615.31;;;12.18;74.82
25080;BME280;13071;48.868;9.996;2022-11-04T12:57:52;95616.19;;;12.26;75.02
25080;BME280;13071;48.868;9.996;2022-11-04T13:00:22;95615.44;;;12.29;75.21
25080;BME280;13071;48.868;9.996;2022-11-04T13:02:56;95612.16;;;12.42;74.23
25080;BME280;13071;48.868;9.996;2022-11-04T13:05:37;95608.47;;;12.28;74.80
25080;BME280;13071;48.868;9.996;2022-11-04T13:08:12;95604.50;;;12.22;75.15
25080;BME280;13071;48.868;9.996;2022-11-04T13:10:47;95607.25;;;12.25;74.79
25080;BME280;13071;48.868;9.996;2022-11-04T13:13:16;95607.47;;;12.13;75.72
25080;BME280;13071;48.868;9.996;2022-11-04T13:15:46;95607.50;;;12.17;74.61
25080;BME280;13071;48.868;9.996;2022-11-04T13:18:18;95599.91;;;11.77;73.81
25080;BME280;13071;48.868;9.996;2022-11-04T13:20:49;95602.81;;;11.68;74.71
25080;BME280;13071;48.868;9.996;2022-11-04T13:23:22;95600.47;;;11.89;74.94